sensor_id;sensor_type;location;lat;lon;timestamp;temperature;humidity
38788;DHT22;24536;45.488;12.238;2023-12-04T00:01:15;6.60;75.30
38788;DHT22;24536;45.488;12.238;2023-12-04T00:03:42;6.60;75.70
38788;DHT22;24536;45.488;12.238;2023-12-04T00:06:07;6.50;75.50
38788;DHT22;24536;45.488;12.238;2023-12-04T00:08:33;6.50;75.80
38788;DHT22;24536;45.488;12.238;2023-12-04T00:10:59;6.50;75.90
38788;DHT22;24536;45.488;12.238;2023-12-04T00:13:24;6.50;75.90
38788;DHT22;24536;45.488;12.238;2023-12-04T00:15:50;6.50;75.90
38788;DHT22;24536;45.488;12.238;2023-12-04T00:18:15;6.60;75.90
38788;DHT22;24536;45.488;12.238;2023-12-04T00:20:41;6.60;75.90
38788;DHT22;24536;45.488;12.238;2023-12-04T00:23:06;6.60;75.90
38788;DHT22;24536;45.488;12.238;2023-12-04T00:25:32;6.60;76.00
38788;DHT22;24536;45.488;12.238;2023-12-04T00:27:57;6.70;76.00
38788;DHT22;24536;45.488;12.238;2023-12-04T00:30:23;6.60;75.80
38788;DHT22;24536;45.488;12.238;2023-12-04T00:32:48;6.60;76.20
38788;DHT22;24536;45.488;12.238;2023-12-04T00:35:14;6.50;76.00
38788;DHT22;24536;45.488;12.238;2023-12-04T00:37:40;6.50;76.10
38788;DHT22;24536;45.488;12.238;2023-12-04T00:40:05;6.40;76.40
38788;DHT22;24536;45.488;12.238;2023-12-04T00:42:31;6.40;76.50
38788;DHT22;24536;45.488;12.238;2023-12-04T00:44:56;6.40;76.60
38788;DHT22;24536;45.488;12.238;2023-12-04T00:47:22;6.30;76.80
38788;DHT22;24536;45.488;12.238;2023-12-04T00:49:48;6.40;76.80
38788;DHT22;24536;45.488;12.238;2023-12-04T00:52:13;6.40;76.80
38788;DHT22;24536;45.488;12.238;2023-12-04T00:54:39;6.40;76.60
38788;DHT22;24536;45.488;12.238;2023-12-04T00:57:06;6.30;76.10
38788;DHT22;24536;45.488;12.238;2023-12-04T00:59:31;6.30;76.50
38788;DHT22;24536;45.488;12.238;2023-12-04T01:01:57;6.40;76.60
38788;DHT22;24536;45.488;12.238;2023-12-04T01:04:23;6.40;76.10
38788;DHT22;24536;45.488;12.238;2023-12-04T01:06:48;6.40;76.10
38788;DHT22;24536;45.488;12.238;2023-12-04T01:09:14;6.30;75.90
38788;DHT22;24536;45.488;12.238;2023-12-04T01:11:39;6.40;76.10
38788;DHT22;24536;45.488;12.238;2023-12-04T01:14:05;6.30;76.10
38788;DHT22;24536;45.488;12.238;2023-12-04T01:16:30;6.30;76.20
38788;DHT22;24536;45.488;12.238;2023-12-04T01:18:56;6.20;76.10
38788;DHT22;24536;45.488;12.238;2023-12-04T01:21:22;6.30;76.10
38788;DHT22;24536;45.488;12.238;2023-12-04T01:23:47;6.20;75.80
38788;DHT22;24536;45.488;12.238;2023-12-04T01:26:13;6.20;75.90
38788;DHT22;24536;45.488;12.238;2023-12-04T01:28:38;6.20;75.70
38788;DHT22;24536;45.488;12.238;2023-12-04T01:31:04;6.30;75.70
38788;DHT22;24536;45.488;12.238;2023-12-04T01:33:30;6.30;75.90
38788;DHT22;24536;45.488;12.238;2023-12-04T01:35:55;6.30;75.50
38788;DHT22;24536;45.488;12.238;2023-12-04T01:38:21;6.30;75.20
38788;DHT22;24536;45.488;12.238;2023-12-04T01:40:46;6.30;75.50
38788;DHT22;24536;45.488;12.238;2023-12-04T01:43:12;6.30;75.60
38788;DHT22;24536;45.488;12.238;2023-12-04T01:45:37;6.30;75.50
38788;DHT22;24536;45.488;12.238;2023-12-04T01:48:03;6.30;75.20
38788;DHT22;24536;45.488;12.238;2023-12-04T01:50:29;6.30;75.30
38788;DHT22;24536;45.488;12.238;2023-12-04T01:52:55;6.20;75.50
38788;DHT22;24536;45.488;12.238;2023-12-04T01:55:20;6.20;75.90
38788;DHT22;24536;45.488;12.238;2023-12-04T01:57:47;6.20;75.90
38788;DHT22;24536;45.488;12.238;2023-12-04T02:00:13;6.20;75.70
38788;DHT22;24536;45.488;12.238;2023-12-04T02:02:40;6.20;75.70
38788;DHT22;24536;45.488;12.238;2023-12-04T02:05:07;6.20;75.70
38788;DHT22;24536;45.488;12.238;2023-12-04T02:07:33;6.20;75.60
38788;DHT22;24536;45.488;12.238;2023-12-04T02:09:59;6.20;75.40
38788;DHT22;24536;45.488;12.238;2023-12-04T02:12:24;6.20;75.60
38788;DHT22;24536;45.488;12.238;2023-12-04T02:14:50;6.20;75.60
38788;DHT22;24536;45.488;12.238;2023-12-04T02:17:16;6.20;75.30
38788;DHT22;24536;45.488;12.238;2023-12-04T02:19:42;6.30;75.30
38788;DHT22;24536;45.488;12.238;2023-12-04T02:22:08;6.30;75.10
38788;DHT22;24536;45.488;12.238;2023-12-04T02:24:33;6.30;75.20
38788;DHT22;24536;45.488;12.238;2023-12-04T02:27:04;6.20;75.00
38788;DHT22;24536;45.488;12.238;2023-12-04T02:29:31;6.20;75.20
38788;DHT22;24536;45.488;12.238;2023-12-04T02:31:58;6.20;75.50
38788;DHT22;24536;45.488;12.238;2023-12-04T02:34:24;6.20;75.60
38788;DHT22;24536;45.488;12.238;2023-12-04T02:36:51;6.20;75.80
38788;DHT22;24536;45.488;12.238;2023-12-04T02:39:17;6.20;75.80
38788;DHT22;24536;45.488;12.238;2023-12-04T02:41:43;6.10;75.60
38788;DHT22;24536;45.488;12.238;2023-12-04T02:44:08;6.10;76.00
38788;DHT22;24536;45.488;12.238;2023-12-04T02:46:34;6.00;76.00
38788;DHT22;24536;45.488;12.238;2023-12-04T02:49:00;6.00;76.20
38788;DHT22;24536;45.488;12.238;2023-12-04T02:51:25;6.00;76.00
38788;DHT22;24536;45.488;12.238;2023-12-04T02:53:51;6.00;76.20
38788;DHT22;24536;45.488;12.238;2023-12-04T02:56:17;6.10;76.80
38788;DHT22;24536;45.488;12.238;2023-12-04T02:58:43;6.00;76.30
38788;DHT22;24536;45.488;12.238;2023-12-04T03:01:08;6.10;76.50
38788;DHT22;24536;45.488;12.238;2023-12-04T03:03:34;6.00;76.40
38788;DHT22;24536;45.488;12.238;2023-12-04T03:05:59;6.10;76.50
38788;DHT22;24536;45.488;12.238;2023-12-04T03:08:25;6.10;76.50
38788;DHT22;24536;45.488;12.238;2023-12-04T03:10:50;6.10;76.30
38788;DHT22;24536;45.488;12.238;2023-12-04T03:13:16;6.10;76.30
38788;DHT22;24536;45.488;12.238;2023-12-04T03:15:41;6.10;76.40
38788;DHT22;24536;45.488;12.238;2023-12-04T03:18:07;6.00;76.50
38788;DHT22;24536;45.488;12.238;2023-12-04T03:20:32;6.10;76.70
38788;DHT22;24536;45.488;12.238;2023-12-04T03:22:58;6.00;76.70
38788;DHT22;24536;45.488;12.238;2023-12-04T03:25:24;6.00;76.60
38788;DHT22;24536;45.488;12.238;2023-12-04T03:27:49;6.00;76.80
38788;DHT22;24536;45.488;12.238;2023-12-04T03:30:15;6.00;76.60
38788;DHT22;24536;45.488;12.238;2023-12-04T03:32:41;6.00;76.80
38788;DHT22;24536;45.488;12.238;2023-12-04T03:35:07;6.00;76.90
38788;DHT22;24536;45.488;12.238;2023-12-04T03:37:32;5.90;76.60
38788;DHT22;24536;45.488;12.238;2023-12-04T03:39:58;5.80;76.90
38788;DHT22;24536;45.488;12.238;2023-12-04T03:42:23;5.80;77.60
38788;DHT22;24536;45.488;12.238;2023-12-04T03:44:49;5.70;77.20
38788;DHT22;24536;45.488;12.238;2023-12-04T03:47:14;5.70;77.50
38788;DHT22;24536;45.488;12.238;2023-12-04T03:49:40;5.70;77.40
38788;DHT22;24536;45.488;12.238;2023-12-04T03:52:06;5.70;77.60
38788;DHT22;24536;45.488;12.238;2023-12-04T03:54:31;5.60;77.70
38788;DHT22;24536;45.488;12.238;2023-12-04T03:56:57;5.60;78.00
38788;DHT22;24536;45.488;12.238;2023-12-04T03:59:22;5.60;78.00
38788;DHT22;24536;45.488;12.238;2023-12-04T04:01:48;5.60;78.00
38788;DHT22;24536;45.488;12.238;2023-12-04T04:04:13;5.70;78.10
38788;DHT22;24536;45.488;12.238;2023-12-04T04:06:39;5.60;78.20
38788;DHT22;24536;45.488;12.238;2023-12-04T04:09:05;5.60;78.30
38788;DHT22;24536;45.488;12.238;2023-12-04T04:11:30;5.60;78.50
38788;DHT22;24536;45.488;12.238;2023-12-04T04:13:56;5.60;78.50
38788;DHT22;24536;45.488;12.238;2023-12-04T04:16:21;5.60;78.90
38788;DHT22;24536;45.488;12.238;2023-12-04T04:18:47;5.60;78.90
38788;DHT22;24536;45.488;12.238;2023-12-04T04:21:12;5.60;79.00
38788;DHT22;24536;45.488;12.238;2023-12-04T04:23:38;5.60;79.00
38788;DHT22;24536;45.488;12.238;2023-12-04T04:26:03;5.60;78.80
38788;DHT22;24536;45.488;12.238;2023-12-04T04:28:29;5.60;78.90
38788;DHT22;24536;45.488;12.238;2023-12-04T04:30:55;5.50;78.90
38788;DHT22;24536;45.488;12.238;2023-12-04T04:33:20;5.50;79.00
38788;DHT22;24536;45.488;12.238;2023-12-04T04:35:46;5.50;79.10
38788;DHT22;24536;45.488;12.238;2023-12-04T04:38:11;5.50;79.20
38788;DHT22;24536;45.488;12.238;2023-12-04T04:40:37;5.60;79.10
38788;DHT22;24536;45.488;12.238;2023-12-04T04:43:07;5.60;79.70
38788;DHT22;24536;45.488;12.238;2023-12-04T04:45:33;5.60;79.30
38788;DHT22;24536;45.488;12.238;2023-12-04T04:47:58;5.60;79.40
38788;DHT22;24536;45.488;12.238;2023-12-04T04:50:24;5.60;79.70
38788;DHT22;24536;45.488;12.238;2023-12-04T04:52:49;5.60;79.40
38788;DHT22;24536;45.488;12.238;2023-12-04T04:55:15;5.60;79.40
38788;DHT22;24536;45.488;12.238;2023-12-04T04:57:40;5.60;78.90
38788;DHT22;24536;45.488;12.238;2023-12-04T05:00:06;5.60;78.80
38788;DHT22;24536;45.488;12.238;2023-12-04T05:02:32;5.60;78.90
38788;DHT22;24536;45.488;12.238;2023-12-04T05:04:57;5.60;78.80
38788;DHT22;24536;45.488;12.238;2023-12-04T05:07:23;5.60;78.80
38788;DHT22;24536;45.488;12.238;2023-12-04T05:09:48;5.60;78.50
38788;DHT22;24536;45.488;12.238;2023-12-04T05:12:14;5.60;78.30
38788;DHT22;24536;45.488;12.238;2023-12-04T05:14:39;5.60;78.00
38788;DHT22;24536;45.488;12.238;2023-12-04T05:17:05;5.60;77.90
38788;DHT22;24536;45.488;12.238;2023-12-04T05:19:31;5.60;78.00
38788;DHT22;24536;45.488;12.238;2023-12-04T05:21:56;5.60;78.00
38788;DHT22;24536;45.488;12.238;2023-12-04T05:24:22;5.60;78.10
38788;DHT22;24536;45.488;12.238;2023-12-04T05:26:47;5.70;78.10
38788;DHT22;24536;45.488;12.238;2023-12-04T05:29:13;5.60;78.20
38788;DHT22;24536;45.488;12.238;2023-12-04T05:31:38;5.60;78.20
38788;DHT22;24536;45.488;12.238;2023-12-04T05:34:04;5.60;78.20
38788;DHT22;24536;45.488;12.238;2023-12-04T05:36:29;5.60;78.20
38788;DHT22;24536;45.488;12.238;2023-12-04T05:38:55;5.60;78.20
38788;DHT22;24536;45.488;12.238;2023-12-04T05:41:20;5.60;78.10
38788;DHT22;24536;45.488;12.238;2023-12-04T05:43:46;5.60;78.20
38788;DHT22;24536;45.488;12.238;2023-12-04T05:46:12;5.50;78.40
38788;DHT22;24536;45.488;12.238;2023-12-04T05:48:38;5.50;78.60
38788;DHT22;24536;45.488;12.238;2023-12-04T05:51:04;5.50;78.90
38788;DHT22;24536;45.488;12.238;2023-12-04T05:53:29;5.40;79.10
38788;DHT22;24536;45.488;12.238;2023-12-04T05:55:55;5.40;79.00
38788;DHT22;24536;45.488;12.238;2023-12-04T05:58:20;5.40;79.40
38788;DHT22;24536;45.488;12.238;2023-12-04T06:00:46;5.30;79.30
38788;DHT22;24536;45.488;12.238;2023-12-04T06:03:11;5.30;79.60
38788;DHT22;24536;45.488;12.238;2023-12-04T06:05:37;5.30;79.50
38788;DHT22;24536;45.488;12.238;2023-12-04T06:08:03;5.30;79.50
38788;DHT22;24536;45.488;12.238;2023-12-04T06:10:28;5.20;79.60
38788;DHT22;24536;45.488;12.238;2023-12-04T06:12:54;5.20;79.70
38788;DHT22;24536;45.488;12.238;2023-12-04T06:15:19;5.20;79.90
38788;DHT22;24536;45.488;12.238;2023-12-04T06:17:45;5.20;80.00
38788;DHT22;24536;45.488;12.238;2023-12-04T06:20:10;5.20;80.00
38788;DHT22;24536;45.488;12.238;2023-12-04T06:22:36;5.20;80.10
38788;DHT22;24536;45.488;12.238;2023-12-04T06:25:02;5.20;80.20
38788;DHT22;24536;45.488;12.238;2023-12-04T06:27:28;5.30;80.00
38788;DHT22;24536;45.488;12.238;2023-12-04T06:29:54;5.30;80.50
38788;DHT22;24536;45.488;12.238;2023-12-04T06:32:19;5.30;80.00
38788;DHT22;24536;45.488;12.238;2023-12-04T06:34:45;5.30;80.00
38788;DHT22;24536;45.488;12.238;2023-12-04T06:37:11;5.30;79.80
38788;DHT22;24536;45.488;12.238;2023-12-04T06:39:38;5.30;79.80
38788;DHT22;24536;45.488;12.238;2023-12-04T06:42:04;5.30;79.70
38788;DHT22;24536;45.488;12.238;2023-12-04T06:44:30;5.30;79.90
38788;DHT22;24536;45.488;12.238;2023-12-04T06:46:56;5.30;79.80
38788;DHT22;24536;45.488;12.238;2023-12-04T06:49:24;5.30;80.00
38788;DHT22;24536;45.488;12.238;2023-12-04T06:51:50;5.20;80.10
38788;DHT22;24536;45.488;12.238;2023-12-04T06:54:15;5.20;80.00
38788;DHT22;24536;45.488;12.238;2023-12-04T06:56:43;5.20;80.30
38788;DHT22;24536;45.488;12.238;2023-12-04T06:59:08;5.20;80.50
38788;DHT22;24536;45.488;12.238;2023-12-04T07:01:34;5.20;80.10
38788;DHT22;24536;45.488;12.238;2023-12-04T07:04:03;5.10;79.70
38788;DHT22;24536;45.488;12.238;2023-12-04T07:06:40;5.00;80.00
38788;DHT22;24536;45.488;12.238;2023-12-04T07:09:06;5.10;80.40
38788;DHT22;24536;45.488;12.238;2023-12-04T07:11:34;5.10;80.50
38788;DHT22;24536;45.488;12.238;2023-12-04T07:14:00;5.20;80.70
38788;DHT22;24536;45.488;12.238;2023-12-04T07:16:25;5.30;80.50
38788;DHT22;24536;45.488;12.238;2023-12-04T07:18:51;5.30;80.50
38788;DHT22;24536;45.488;12.238;2023-12-04T07:21:16;5.30;80.10
38788;DHT22;24536;45.488;12.238;2023-12-04T07:23:42;5.20;80.30
38788;DHT22;24536;45.488;12.238;2023-12-04T07:26:07;5.20;80.50
38788;DHT22;24536;45.488;12.238;2023-12-04T07:28:33;5.30;80.70
38788;DHT22;24536;45.488;12.238;2023-12-04T07:30:59;5.20;80.70
38788;DHT22;24536;45.488;12.238;2023-12-04T07:33:25;5.20;80.80
38788;DHT22;24536;45.488;12.238;2023-12-04T07:35:51;5.20;80.80
38788;DHT22;24536;45.488;12.238;2023-12-04T07:38:17;5.10;80.80
38788;DHT22;24536;45.488;12.238;2023-12-04T07:40:43;5.00;80.50
38788;DHT22;24536;45.488;12.238;2023-12-04T07:43:08;5.00;81.20
38788;DHT22;24536;45.488;12.238;2023-12-04T07:45:34;5.00;81.50
38788;DHT22;24536;45.488;12.238;2023-12-04T07:48:02;4.90;81.20
38788;DHT22;24536;45.488;12.238;2023-12-04T07:50:29;4.90;81.70
38788;DHT22;24536;45.488;12.238;2023-12-04T07:52:54;5.00;81.80
38788;DHT22;24536;45.488;12.238;2023-12-04T07:55:20;5.00;81.70
38788;DHT22;24536;45.488;12.238;2023-12-04T07:57:45;5.10;81.50
38788;DHT22;24536;45.488;12.238;2023-12-04T08:00:11;5.10;81.50
38788;DHT22;24536;45.488;12.238;2023-12-04T08:02:37;5.00;81.50
38788;DHT22;24536;45.488;12.238;2023-12-04T08:05:03;5.10;81.30
38788;DHT22;24536;45.488;12.238;2023-12-04T08:07:28;5.10;81.10
38788;DHT22;24536;45.488;12.238;2023-12-04T08:09:54;5.00;80.10
38788;DHT22;24536;45.488;12.238;2023-12-04T08:12:20;5.00;81.30
38788;DHT22;24536;45.488;12.238;2023-12-04T08:14:45;5.00;81.10
38788;DHT22;24536;45.488;12.238;2023-12-04T08:17:12;5.10;81.40
38788;DHT22;24536;45.488;12.238;2023-12-04T08:19:37;5.10;80.60
38788;DHT22;24536;45.488;12.238;2023-12-04T08:22:03;5.20;81.20
38788;DHT22;24536;45.488;12.238;2023-12-04T08:24:29;5.20;80.80
38788;DHT22;24536;45.488;12.238;2023-12-04T08:26:56;5.30;80.90
38788;DHT22;24536;45.488;12.238;2023-12-04T08:29:22;5.40;81.10
38788;DHT22;24536;45.488;12.238;2023-12-04T08:31:47;5.50;83.50
38788;DHT22;24536;45.488;12.238;2023-12-04T08:34:16;5.70;80.90
38788;DHT22;24536;45.488;12.238;2023-12-04T08:36:41;5.80;80.70
38788;DHT22;24536;45.488;12.238;2023-12-04T08:39:07;5.90;80.60
38788;DHT22;24536;45.488;12.238;2023-12-04T08:41:33;5.90;78.50
38788;DHT22;24536;45.488;12.238;2023-12-04T08:43:58;5.90;78.30
38788;DHT22;24536;45.488;12.238;2023-12-04T08:46:24;5.90;78.60
38788;DHT22;24536;45.488;12.238;2023-12-04T08:48:49;5.90;78.10
38788;DHT22;24536;45.488;12.238;2023-12-04T08:51:18;5.90;79.20
38788;DHT22;24536;45.488;12.238;2023-12-04T08:53:44;6.00;79.50
38788;DHT22;24536;45.488;12.238;2023-12-04T08:56:10;6.00;78.40
38788;DHT22;24536;45.488;12.238;2023-12-04T08:58:37;6.10;78.40
38788;DHT22;24536;45.488;12.238;2023-12-04T09:01:03;6.10;78.20
38788;DHT22;24536;45.488;12.238;2023-12-04T09:03:29;6.10;79.00
38788;DHT22;24536;45.488;12.238;2023-12-04T09:05:56;6.10;78.30
38788;DHT22;24536;45.488;12.238;2023-12-04T09:08:22;6.10;77.80
38788;DHT22;24536;45.488;12.238;2023-12-04T09:10:48;6.10;77.80
38788;DHT22;24536;45.488;12.238;2023-12-04T09:13:14;6.10;78.30
38788;DHT22;24536;45.488;12.238;2023-12-04T09:15:39;6.10;78.70
38788;DHT22;24536;45.488;12.238;2023-12-04T09:18:05;6.20;78.80
38788;DHT22;24536;45.488;12.238;2023-12-04T09:20:30;6.30;78.90
38788;DHT22;24536;45.488;12.238;2023-12-04T09:22:56;6.40;78.30
38788;DHT22;24536;45.488;12.238;2023-12-04T09:25:22;6.40;78.00
38788;DHT22;24536;45.488;12.238;2023-12-04T09:27:47;6.40;77.90
38788;DHT22;24536;45.488;12.238;2023-12-04T09:30:13;6.40;78.40
38788;DHT22;24536;45.488;12.238;2023-12-04T09:32:39;6.40;77.70
38788;DHT22;24536;45.488;12.238;2023-12-04T09:35:06;6.40;78.10
38788;DHT22;24536;45.488;12.238;2023-12-04T09:37:31;6.50;78.10
38788;DHT22;24536;45.488;12.238;2023-12-04T09:39:57;6.50;77.80
38788;DHT22;24536;45.488;12.238;2023-12-04T09:42:22;6.60;77.10
38788;DHT22;24536;45.488;12.238;2023-12-04T09:44:48;6.50;76.70
38788;DHT22;24536;45.488;12.238;2023-12-04T09:47:17;6.50;77.30
38788;DHT22;24536;45.488;12.238;2023-12-04T09:49:43;6.50;77.30
38788;DHT22;24536;45.488;12.238;2023-12-04T09:52:10;6.40;77.40
38788;DHT22;24536;45.488;12.238;2023-12-04T09:54:35;6.50;77.30
38788;DHT22;24536;45.488;12.238;2023-12-04T09:57:01;6.40;76.90
38788;DHT22;24536;45.488;12.238;2023-12-04T09:59:26;6.40;77.30
38788;DHT22;24536;45.488;12.238;2023-12-04T10:01:54;6.50;77.70
38788;DHT22;24536;45.488;12.238;2023-12-04T10:04:20;6.60;78.00
38788;DHT22;24536;45.488;12.238;2023-12-04T10:06:46;6.70;77.90
38788;DHT22;24536;45.488;12.238;2023-12-04T10:09:15;6.90;77.60
38788;DHT22;24536;45.488;12.238;2023-12-04T10:11:44;7.00;76.70
38788;DHT22;24536;45.488;12.238;2023-12-04T10:14:16;7.10;76.60
38788;DHT22;24536;45.488;12.238;2023-12-04T10:16:42;7.20;75.90
38788;DHT22;24536;45.488;12.238;2023-12-04T10:19:15;7.20;75.80
38788;DHT22;24536;45.488;12.238;2023-12-04T10:21:47;7.30;75.50
38788;DHT22;24536;45.488;12.238;2023-12-04T10:24:26;7.40;75.40
38788;DHT22;24536;45.488;12.238;2023-12-04T10:26:52;7.60;75.30
38788;DHT22;24536;45.488;12.238;2023-12-04T10:29:17;7.70;75.30
38788;DHT22;24536;45.488;12.238;2023-12-04T10:31:43;7.80;74.40
38788;DHT22;24536;45.488;12.238;2023-12-04T10:34:09;8.00;74.00
38788;DHT22;24536;45.488;12.238;2023-12-04T10:36:37;8.20;74.40
38788;DHT22;24536;45.488;12.238;2023-12-04T10:39:03;8.20;72.30
38788;DHT22;24536;45.488;12.238;2023-12-04T10:41:32;8.20;71.90
38788;DHT22;24536;45.488;12.238;2023-12-04T10:43:57;8.10;69.40
38788;DHT22;24536;45.488;12.238;2023-12-04T10:46:27;7.90;71.40
38788;DHT22;24536;45.488;12.238;2023-12-04T10:48:53;7.80;72.10
38788;DHT22;24536;45.488;12.238;2023-12-04T10:51:18;7.80;72.20
38788;DHT22;24536;45.488;12.238;2023-12-04T10:53:44;7.80;72.30
38788;DHT22;24536;45.488;12.238;2023-12-04T10:56:10;7.60;70.60
38788;DHT22;24536;45.488;12.238;2023-12-04T10:58:37;7.20;71.40
38788;DHT22;24536;45.488;12.238;2023-12-04T11:01:04;7.10;72.90
38788;DHT22;24536;45.488;12.238;2023-12-04T11:03:34;6.90;72.80
38788;DHT22;24536;45.488;12.238;2023-12-04T11:06:01;6.90;73.80
38788;DHT22;24536;45.488;12.238;2023-12-04T11:08:29;7.00;74.20
38788;DHT22;24536;45.488;12.238;2023-12-04T11:11:04;7.10;74.60
38788;DHT22;24536;45.488;12.238;2023-12-04T11:13:37;7.20;74.50
38788;DHT22;24536;45.488;12.238;2023-12-04T11:16:07;7.30;74.20
38788;DHT22;24536;45.488;12.238;2023-12-04T11:18:36;7.30;74.00
38788;DHT22;24536;45.488;12.238;2023-12-04T11:21:09;7.30;74.00
38788;DHT22;24536;45.488;12.238;2023-12-04T11:23:35;7.30;73.70
38788;DHT22;24536;45.488;12.238;2023-12-04T11:26:02;7.30;74.50
38788;DHT22;24536;45.488;12.238;2023-12-04T11:28:29;7.30;74.10
38788;DHT22;24536;45.488;12.238;2023-12-04T11:30:55;7.10;74.30
38788;DHT22;24536;45.488;12.238;2023-12-04T11:33:21;7.00;74.40
38788;DHT22;24536;45.488;12.238;2023-12-04T11:35:46;7.00;75.00
38788;DHT22;24536;45.488;12.238;2023-12-04T11:38:16;7.00;75.40
38788;DHT22;24536;45.488;12.238;2023-12-04T11:40:42;7.10;75.30
38788;DHT22;24536;45.488;12.238;2023-12-04T11:43:26;7.10;74.90
38788;DHT22;24536;45.488;12.238;2023-12-04T11:45:53;7.20;75.10
38788;DHT22;24536;45.488;12.238;2023-12-04T11:48:22;7.20;74.20
38788;DHT22;24536;45.488;12.238;2023-12-04T11:50:49;7.30;74.50
38788;DHT22;24536;45.488;12.238;2023-12-04T11:53:16;7.30;74.30
38788;DHT22;24536;45.488;12.238;2023-12-04T11:55:41;7.20;71.30
38788;DHT22;24536;45.488;12.238;2023-12-04T11:58:10;7.20;71.00
38788;DHT22;24536;45.488;12.238;2023-12-04T12:00:36;7.10;71.30
38788;DHT22;24536;45.488;12.238;2023-12-04T12:03:04;7.00;72.30
38788;DHT22;24536;45.488;12.238;2023-12-04T12:05:32;7.10;72.80
38788;DHT22;24536;45.488;12.238;2023-12-04T12:08:04;7.20;73.20
38788;DHT22;24536;45.488;12.238;2023-12-04T12:10:30;7.30;73.70
38788;DHT22;24536;45.488;12.238;2023-12-04T12:12:56;7.40;72.60
38788;DHT22;24536;45.488;12.238;2023-12-04T12:15:22;7.60;73.30
38788;DHT22;24536;45.488;12.238;2023-12-04T12:17:49;7.70;73.10
38788;DHT22;24536;45.488;12.238;2023-12-04T12:20:14;7.90;72.90
38788;DHT22;24536;45.488;12.238;2023-12-04T12:22:40;8.10;72.40
38788;DHT22;24536;45.488;12.238;2023-12-04T12:25:09;8.20;72.00
38788;DHT22;24536;45.488;12.238;2023-12-04T12:27:35;8.30;71.10
38788;DHT22;24536;45.488;12.238;2023-12-04T12:30:01;8.40;70.90
38788;DHT22;24536;45.488;12.238;2023-12-04T12:32:28;8.40;68.20
38788;DHT22;24536;45.488;12.238;2023-12-04T12:34:57;8.40;67.30
38788;DHT22;24536;45.488;12.238;2023-12-04T12:37:22;8.30;68.00
38788;DHT22;24536;45.488;12.238;2023-12-04T12:39:48;8.20;69.50
38788;DHT22;24536;45.488;12.238;2023-12-04T12:42:23;8.20;69.40
38788;DHT22;24536;45.488;12.238;2023-12-04T12:44:49;8.30;69.70
38788;DHT22;24536;45.488;12.238;2023-12-04T12:47:14;8.20;69.70
38788;DHT22;24536;45.488;12.238;2023-12-04T12:49:40;8.20;69.90
38788;DHT22;24536;45.488;12.238;2023-12-04T12:52:06;8.20;69.90
38788;DHT22;24536;45.488;12.238;2023-12-04T12:54:36;8.10;67.60
38788;DHT22;24536;45.488;12.238;2023-12-04T12:57:01;8.00;69.30
38788;DHT22;24536;45.488;12.238;2023-12-04T12:59:27;7.90;69.00
38788;DHT22;24536;45.488;12.238;2023-12-04T13:01:53;7.90;70.40
38788;DHT22;24536;45.488;12.238;2023-12-04T13:04:19;7.90;70.40
38788;DHT22;24536;45.488;12.238;2023-12-04T13:06:44;7.90;70.40
38788;DHT22;24536;45.488;12.238;2023-12-04T13:09:11;7.90;70.90
38788;DHT22;24536;45.488;12.238;2023-12-04T13:11:46;7.90;71.00
38788;DHT22;24536;45.488;12.238;2023-12-04T13:14:13;8.00;70.70
38788;DHT22;24536;45.488;12.238;2023-12-04T13:16:39;8.00;70.00
38788;DHT22;24536;45.488;12.238;2023-12-04T13:19:05;8.00;69.20
38788;DHT22;24536;45.488;12.238;2023-12-04T13:21:31;7.90;69.00
38788;DHT22;24536;45.488;12.238;2023-12-04T13:23:57;7.90;70.30
38788;DHT22;24536;45.488;12.238;2023-12-04T13:26:24;7.90;69.10
38788;DHT22;24536;45.488;12.238;2023-12-04T13:28:49;7.90;70.60
38788;DHT22;24536;45.488;12.238;2023-12-04T13:31:15;7.70;69.70
38788;DHT22;24536;45.488;12.238;2023-12-04T13:33:40;7.70;70.20
38788;DHT22;24536;45.488;12.238;2023-12-04T13:36:08;7.60;70.30
38788;DHT22;24536;45.488;12.238;2023-12-04T13:38:34;7.60;71.10
38788;DHT22;24536;45.488;12.238;2023-12-04T13:41:00;7.50;71.40
38788;DHT22;24536;45.488;12.238;2023-12-04T13:43:44;7.60;71.80
38788;DHT22;24536;45.488;12.238;2023-12-04T13:46:15;7.70;71.80
38788;DHT22;24536;45.488;12.238;2023-12-04T13:48:41;7.70;72.10
38788;DHT22;24536;45.488;12.238;2023-12-04T13:51:08;7.80;72.30
38788;DHT22;24536;45.488;12.238;2023-12-04T13:53:34;7.80;72.20
38788;DHT22;24536;45.488;12.238;2023-12-04T13:56:00;7.80;72.20
38788;DHT22;24536;45.488;12.238;2023-12-04T13:58:25;7.80;71.40
38788;DHT22;24536;45.488;12.238;2023-12-04T14:01:05;7.70;70.50
38788;DHT22;24536;45.488;12.238;2023-12-04T14:03:39;7.70;71.90
38788;DHT22;24536;45.488;12.238;2023-12-04T14:06:05;7.70;72.10
38788;DHT22;24536;45.488;12.238;2023-12-04T14:08:31;7.60;72.10
38788;DHT22;24536;45.488;12.238;2023-12-04T14:10:56;7.50;71.40
38788;DHT22;24536;45.488;12.238;2023-12-04T14:13:22;7.50;72.00
38788;DHT22;24536;45.488;12.238;2023-12-04T14:15:48;7.40;71.20
38788;DHT22;24536;45.488;12.238;2023-12-04T14:18:14;7.40;71.20
38788;DHT22;24536;45.488;12.238;2023-12-04T14:20:39;7.30;72.20
38788;DHT22;24536;45.488;12.238;2023-12-04T14:23:05;7.40;72.00
38788;DHT22;24536;45.488;12.238;2023-12-04T14:25:30;7.40;72.50
38788;DHT22;24536;45.488;12.238;2023-12-04T14:27:56;7.40;73.10
38788;DHT22;24536;45.488;12.238;2023-12-04T14:30:21;7.40;72.70
38788;DHT22;24536;45.488;12.238;2023-12-04T14:32:47;7.50;73.10
38788;DHT22;24536;45.488;12.238;2023-12-04T14:35:13;7.50;73.20
38788;DHT22;24536;45.488;12.238;2023-12-04T14:37:39;7.50;73.20
38788;DHT22;24536;45.488;12.238;2023-12-04T14:40:05;7.50;72.90
38788;DHT22;24536;45.488;12.238;2023-12-04T14:42:31;7.50;73.00
38788;DHT22;24536;45.488;12.238;2023-12-04T14:44:56;7.50;73.30
38788;DHT22;24536;45.488;12.238;2023-12-04T14:47:22;7.60;74.10
38788;DHT22;24536;45.488;12.238;2023-12-04T14:49:47;7.60;74.70
38788;DHT22;24536;45.488;12.238;2023-12-04T14:52:18;7.60;74.70
38788;DHT22;24536;45.488;12.238;2023-12-04T14:54:46;7.60;73.90
38788;DHT22;24536;45.488;12.238;2023-12-04T14:57:31;7.60;74.00
38788;DHT22;24536;45.488;12.238;2023-12-04T15:00:09;7.60;72.90
38788;DHT22;24536;45.488;12.238;2023-12-04T15:02:35;7.60;73.30
38788;DHT22;24536;45.488;12.238;2023-12-04T15:05:19;7.50;73.50
38788;DHT22;24536;45.488;12.238;2023-12-04T15:08:05;7.50;73.60
38788;DHT22;24536;45.488;12.238;2023-12-04T15:10:48;7.60;74.50
38788;DHT22;24536;45.488;12.238;2023-12-04T15:13:23;7.60;74.80
38788;DHT22;24536;45.488;12.238;2023-12-04T15:15:51;7.60;73.80
38788;DHT22;24536;45.488;12.238;2023-12-04T15:18:46;7.70;74.10
38788;DHT22;24536;45.488;12.238;2023-12-04T15:21:18;7.70;74.50
38788;DHT22;24536;45.488;12.238;2023-12-04T15:23:43;7.70;73.80
38788;DHT22;24536;45.488;12.238;2023-12-04T15:26:09;7.60;73.30